sensor_id;sensor_type;location;lat;lon;timestamp;P1;durP1;ratioP1;P2;durP2;ratioP2
19285;SDS011;9776;50.798;6.430;2022-07-23T00:00:19;4.43;;;4.07;;
19285;SDS011;9776;50.798;6.430;2022-07-23T00:02:48;4.75;;;4.35;;
19285;SDS011;9776;50.798;6.430;2022-07-23T00:05:14;4.22;;;3.92;;
19285;SDS011;9776;50.798;6.430;2022-07-23T00:07:41;4.78;;;4.47;;
19285;SDS011;9776;50.798;6.430;2022-07-23T00:10:08;4.45;;;4.15;;
19285;SDS011;9776;50.798;6.430;2022-07-23T00:12:35;4.28;;;3.95;;
19285;SDS011;9776;50.798;6.430;2022-07-23T00:15:03;4.72;;;4.43;;
19285;SDS011;9776;50.798;6.430;2022-07-23T00:17:31;4.35;;;4.05;;
19285;SDS011;9776;50.798;6.430;2022-07-23T00:19:59;4.28;;;3.97;;
19285;SDS011;9776;50.798;6.430;2022-07-23T00:22:26;4.05;;;3.75;;
19285;SDS011;9776;50.798;6.430;2022-07-23T00:24:54;3.97;;;3.75;;
19285;SDS011;9776;50.798;6.430;2022-07-23T00:27:20;4.30;;;4.00;;
19285;SDS011;9776;50.798;6.430;2022-07-23T00:29:47;4.22;;;3.92;;
19285;SDS011;9776;50.798;6.430;2022-07-23T00:32:14;4.90;;;4.50;;
19285;SDS011;9776;50.798;6.430;2022-07-23T00:34:41;4.40;;;4.10;;
19285;SDS011;9776;50.798;6.430;2022-07-23T00:37:09;4.18;;;3.88;;
19285;SDS011;9776;50.798;6.430;2022-07-23T00:39:36;4.43;;;4.03;;
19285;SDS011;9776;50.798;6.430;2022-07-23T00:42:02;4.95;;;4.28;;
19285;SDS011;9776;50.798;6.430;2022-07-23T00:44:29;4.97;;;4.57;;
19285;SDS011;9776;50.798;6.430;2022-07-23T00:46:57;4.15;;;3.85;;
19285;SDS011;9776;50.798;6.430;2022-07-23T00:49:25;3.92;;;3.70;;
19285;SDS011;9776;50.798;6.430;2022-07-23T00:51:53;4.22;;;3.85;;
19285;SDS011;9776;50.798;6.430;2022-07-23T00:54:23;4.35;;;4.05;;
19285;SDS011;9776;50.798;6.430;2022-07-23T00:56:51;4.28;;;3.97;;
19285;SDS011;9776;50.798;6.430;2022-07-23T00:59:19;4.30;;;3.95;;
19285;SDS011;9776;50.798;6.430;2022-07-23T01:01:46;4.35;;;4.05;;
19285;SDS011;9776;50.798;6.430;2022-07-23T01:04:14;4.40;;;4.10;;
19285;SDS011;9776;50.798;6.430;2022-07-23T01:06:41;4.40;;;4.00;;
19285;SDS011;9776;50.798;6.430;2022-07-23T01:09:10;4.80;;;4.40;;
19285;SDS011;9776;50.798;6.430;2022-07-23T01:11:39;4.60;;;4.25;;
19285;SDS011;9776;50.798;6.430;2022-07-23T01:14:08;4.68;;;4.38;;
19285;SDS011;9776;50.798;6.430;2022-07-23T01:16:35;4.88;;;4.38;;
19285;SDS011;9776;50.798;6.430;2022-07-23T01:19:02;4.65;;;4.25;;
19285;SDS011;9776;50.798;6.430;2022-07-23T01:21:31;4.72;;;4.38;;
19285;SDS011;9776;50.798;6.430;2022-07-23T01:24:03;4.40;;;4.10;;
19285;SDS011;9776;50.798;6.430;2022-07-23T01:26:30;4.78;;;4.43;;
19285;SDS011;9776;50.798;6.430;2022-07-23T01:28:57;4.75;;;4.45;;
19285;SDS011;9776;50.798;6.430;2022-07-23T01:31:23;4.80;;;4.40;;
19285;SDS011;9776;50.798;6.430;2022-07-23T01:33:50;4.57;;;4.28;;
19285;SDS011;9776;50.798;6.430;2022-07-23T01:36:17;4.85;;;4.47;;
19285;SDS011;9776;50.798;6.430;2022-07-23T01:38:44;4.65;;;4.30;;
19285;SDS011;9776;50.798;6.430;2022-07-23T01:41:12;4.90;;;4.60;;
19285;SDS011;9776;50.798;6.430;2022-07-23T01:43:39;4.28;;;4.00;;
19285;SDS011;9776;50.798;6.430;2022-07-23T01:46:06;4.57;;;4.20;;
19285;SDS011;9776;50.798;6.430;2022-07-23T01:48:32;4.97;;;4.57;;
19285;SDS011;9776;50.798;6.430;2022-07-23T01:50:59;4.88;;;4.50;;
19285;SDS011;9776;50.798;6.430;2022-07-23T01:53:26;5.10;;;4.72;;
19285;SDS011;9776;50.798;6.430;2022-07-23T01:55:52;4.55;;;4.25;;
19285;SDS011;9776;50.798;6.430;2022-07-23T01:58:20;4.55;;;4.25;;
19285;SDS011;9776;50.798;6.430;2022-07-23T02:00:47;4.57;;;4.22;;
19285;SDS011;9776;50.798;6.430;2022-07-23T02:03:14;4.82;;;4.43;;
19285;SDS011;9776;50.798;6.430;2022-07-23T02:05:40;4.60;;;4.20;;
19285;SDS011;9776;50.798;6.430;2022-07-23T02:08:07;4.30;;;4.00;;
19285;SDS011;9776;50.798;6.430;2022-07-23T02:10:34;4.75;;;4.35;;
19285;SDS011;9776;50.798;6.430;2022-07-23T02:13:00;4.70;;;4.40;;
19285;SDS011;9776;50.798;6.430;2022-07-23T02:15:28;4.70;;;4.40;;
19285;SDS011;9776;50.798;6.430;2022-07-23T02:17:56;5.32;;;4.82;;
19285;SDS011;9776;50.798;6.430;2022-07-23T02:20:22;5.30;;;4.90;;
19285;SDS011;9776;50.798;6.430;2022-07-23T02:22:49;5.38;;;4.90;;
19285;SDS011;9776;50.798;6.430;2022-07-23T02:25:16;4.72;;;4.43;;
19285;SDS011;9776;50.798;6.430;2022-07-23T02:27:43;5.13;;;4.72;;
19285;SDS011;9776;50.798;6.430;2022-07-23T02:30:10;5.13;;;4.72;;
19285;SDS011;9776;50.798;6.430;2022-07-23T02:32:39;4.90;;;4.60;;
19285;SDS011;9776;50.798;6.430;2022-07-23T02:35:06;5.47;;;5.07;;
19285;SDS011;9776;50.798;6.430;2022-07-23T02:37:33;5.13;;;4.72;;
19285;SDS011;9776;50.798;6.430;2022-07-23T02:40:00;4.97;;;4.68;;
19285;SDS011;9776;50.798;6.430;2022-07-23T02:42:27;5.07;;;4.78;;
19285;SDS011;9776;50.798;6.430;2022-07-23T02:44:53;5.43;;;5.10;;
19285;SDS011;9776;50.798;6.430;2022-07-23T02:47:20;5.10;;;4.75;;
19285;SDS011;9776;50.798;6.430;2022-07-23T02:49:48;4.80;;;4.40;;
19285;SDS011;9776;50.798;6.430;2022-07-23T02:52:15;5.25;;;4.85;;
19285;SDS011;9776;50.798;6.430;2022-07-23T02:54:41;5.32;;;4.93;;
19285;SDS011;9776;50.798;6.430;2022-07-23T02:57:08;5.53;;;5.03;;
19285;SDS011;9776;50.798;6.430;2022-07-23T02:59:35;5.15;;;4.85;;
19285;SDS011;9776;50.798;6.430;2022-07-23T03:02:02;4.60;;;4.30;;
19285;SDS011;9776;50.798;6.430;2022-07-23T03:04:28;5.20;;;4.82;;
19285;SDS011;9776;50.798;6.430;2022-07-23T03:06:56;5.53;;;5.13;;
19285;SDS011;9776;50.798;6.430;2022-07-23T03:09:23;5.13;;;4.78;;
19285;SDS011;9776;50.798;6.430;2022-07-23T03:11:50;4.97;;;4.63;;
19285;SDS011;9776;50.798;6.430;2022-07-23T03:14:16;5.28;;;4.97;;
19285;SDS011;9776;50.798;6.430;2022-07-23T03:16:43;5.20;;;4.80;;
19285;SDS011;9776;50.798;6.430;2022-07-23T03:19:10;4.90;;;4.50;;
19285;SDS011;9776;50.798;6.430;2022-07-23T03:21:36;4.93;;;4.63;;
19285;SDS011;9776;50.798;6.430;2022-07-23T03:24:07;4.47;;;4.18;;
19285;SDS011;9776;50.798;6.430;2022-07-23T03:26:35;4.18;;;3.88;;
19285;SDS011;9776;50.798;6.430;2022-07-23T03:29:01;4.65;;;4.28;;
19285;SDS011;9776;50.798;6.430;2022-07-23T03:31:29;4.57;;;4.28;;
19285;SDS011;9776;50.798;6.430;2022-07-23T03:33:58;4.65;;;4.35;;
19285;SDS011;9776;50.798;6.430;2022-07-23T03:36:26;4.35;;;4.10;;
19285;SDS011;9776;50.798;6.430;2022-07-23T03:38:55;3.95;;;3.75;;
19285;SDS011;9776;50.798;6.430;2022-07-23T03:41:23;4.30;;;4.00;;
19285;SDS011;9776;50.798;6.430;2022-07-23T03:43:50;4.05;;;3.75;;
19285;SDS011;9776;50.798;6.430;2022-07-23T03:46:17;4.25;;;3.85;;
19285;SDS011;9776;50.798;6.430;2022-07-23T03:48:43;4.07;;;3.78;;
19285;SDS011;9776;50.798;6.430;2022-07-23T03:51:10;4.10;;;3.80;;
19285;SDS011;9776;50.798;6.430;2022-07-23T03:53:37;3.97;;;3.67;;
19285;SDS011;9776;50.798;6.430;2022-07-23T03:56:07;4.32;;;4.03;;
19285;SDS011;9776;50.798;6.430;2022-07-23T03:58:37;4.10;;;3.83;;
19285;SDS011;9776;50.798;6.430;2022-07-23T04:01:04;3.90;;;3.60;;
19285;SDS011;9776;50.798;6.430;2022-07-23T04:03:31;4.10;;;3.80;;
19285;SDS011;9776;50.798;6.430;2022-07-23T04:05:57;4.30;;;4.00;;
19285;SDS011;9776;50.798;6.430;2022-07-23T04:08:24;4.20;;;3.88;;
19285;SDS011;9776;50.798;6.430;2022-07-23T04:10:51;4.07;;;3.78;;
19285;SDS011;9776;50.798;6.430;2022-07-23T04:13:18;4.10;;;3.80;;
19285;SDS011;9776;50.798;6.430;2022-07-23T04:15:46;3.70;;;3.50;;
19285;SDS011;9776;50.798;6.430;2022-07-23T04:18:13;4.30;;;4.00;;
19285;SDS011;9776;50.798;6.430;2022-07-23T04:20:42;4.30;;;4.00;;
19285;SDS011;9776;50.798;6.430;2022-07-23T04:23:14;3.90;;;3.60;;
19285;SDS011;9776;50.798;6.430;2022-07-23T04:25:40;4.47;;;4.18;;
19285;SDS011;9776;50.798;6.430;2022-07-23T04:28:07;4.13;;;3.83;;
19285;SDS011;9776;50.798;6.430;2022-07-23T04:30:34;4.13;;;3.83;;
19285;SDS011;9776;50.798;6.430;2022-07-23T04:33:02;4.57;;;4.18;;
19285;SDS011;9776;50.798;6.430;2022-07-23T04:35:31;4.15;;;3.80;;
19285;SDS011;9776;50.798;6.430;2022-07-23T04:37:58;4.63;;;4.32;;
19285;SDS011;9776;50.798;6.430;2022-07-23T04:40:25;4.35;;;4.05;;
19285;SDS011;9776;50.798;6.430;2022-07-23T04:42:52;5.00;;;4.70;;
19285;SDS011;9776;50.798;6.430;2022-07-23T04:45:18;4.60;;;4.30;;
19285;SDS011;9776;50.798;6.430;2022-07-23T04:47:45;4.88;;;4.47;;
19285;SDS011;9776;50.798;6.430;2022-07-23T04:50:14;4.28;;;3.97;;
19285;SDS011;9776;50.798;6.430;2022-07-23T04:52:46;4.95;;;4.65;;
19285;SDS011;9776;50.798;6.430;2022-07-23T04:55:12;4.50;;;4.20;;
19285;SDS011;9776;50.798;6.430;2022-07-23T04:57:39;4.40;;;4.10;;
19285;SDS011;9776;50.798;6.430;2022-07-23T05:00:07;4.47;;;4.18;;
19285;SDS011;9776;50.798;6.430;2022-07-23T05:02:35;4.15;;;3.85;;
19285;SDS011;9776;50.798;6.430;2022-07-23T05:05:01;5.28;;;4.78;;
19285;SDS011;9776;50.798;6.430;2022-07-23T05:07:29;4.43;;;4.13;;
19285;SDS011;9776;50.798;6.430;2022-07-23T05:09:56;5.32;;;4.80;;
19285;SDS011;9776;50.798;6.430;2022-07-23T05:12:23;5.07;;;4.68;;
19285;SDS011;9776;50.798;6.430;2022-07-23T05:14:49;5.00;;;4.70;;
19285;SDS011;9776;50.798;6.430;2022-07-23T05:17:18;5.63;;;5.22;;
19285;SDS011;9776;50.798;6.430;2022-07-23T05:19:44;5.03;;;4.72;;
19285;SDS011;9776;50.798;6.430;2022-07-23T05:22:11;6.00;;;5.50;;
19285;SDS011;9776;50.798;6.430;2022-07-23T05:24:39;5.80;;;5.40;;
19285;SDS011;9776;50.798;6.430;2022-07-23T05:27:06;5.90;;;5.50;;
19285;SDS011;9776;50.798;6.430;2022-07-23T05:29:32;5.68;;;5.28;;
19285;SDS011;9776;50.798;6.430;2022-07-23T05:31:59;6.43;;;5.93;;
19285;SDS011;9776;50.798;6.430;2022-07-23T05:34:25;5.57;;;5.18;;
19285;SDS011;9776;50.798;6.430;2022-07-23T05:36:52;6.07;;;5.68;;
19285;SDS011;9776;50.798;6.430;2022-07-23T05:39:19;6.53;;;6.03;;
19285;SDS011;9776;50.798;6.430;2022-07-23T05:41:47;6.00;;;5.57;;
19285;SDS011;9776;50.798;6.430;2022-07-23T05:44:14;6.05;;;5.65;;
19285;SDS011;9776;50.798;6.430;2022-07-23T05:46:40;6.28;;;5.82;;
19285;SDS011;9776;50.798;6.430;2022-07-23T05:49:07;6.40;;;5.90;;
19285;SDS011;9776;50.798;6.430;2022-07-23T05:51:34;6.20;;;5.70;;
19285;SDS011;9776;50.798;6.430;2022-07-23T05:54:00;5.70;;;5.30;;
19285;SDS011;9776;50.798;6.430;2022-07-23T05:56:27;6.10;;;5.53;;
19285;SDS011;9776;50.798;6.430;2022-07-23T05:58:55;6.20;;;5.70;;
19285;SDS011;9776;50.798;6.430;2022-07-23T06:01:22;6.28;;;5.78;;
19285;SDS011;9776;50.798;6.430;2022-07-23T06:03:49;5.97;;;5.53;;
19285;SDS011;9776;50.798;6.430;2022-07-23T06:06:15;6.82;;;6.32;;
19285;SDS011;9776;50.798;6.430;2022-07-23T06:08:42;6.22;;;5.72;;
19285;SDS011;9776;50.798;6.430;2022-07-23T06:11:09;6.05;;;5.63;;
19285;SDS011;9776;50.798;6.430;2022-07-23T06:13:35;6.55;;;5.95;;
19285;SDS011;9776;50.798;6.430;2022-07-23T06:16:04;6.22;;;5.75;;
19285;SDS011;9776;50.798;6.430;2022-07-23T06:18:30;6.50;;;5.95;;
19285;SDS011;9776;50.798;6.430;2022-07-23T06:20:57;6.70;;;6.20;;
19285;SDS011;9776;50.798;6.430;2022-07-23T06:23:24;7.05;;;6.45;;
19285;SDS011;9776;50.798;6.430;2022-07-23T06:25:51;6.53;;;5.90;;
19285;SDS011;9776;50.798;6.430;2022-07-23T06:28:18;6.75;;;6.22;;
19285;SDS011;9776;50.798;6.430;2022-07-23T06:30:44;6.97;;;6.38;;
19285;SDS011;9776;50.798;6.430;2022-07-23T06:33:12;6.43;;;5.93;;
19285;SDS011;9776;50.798;6.430;2022-07-23T06:35:39;7.07;;;6.55;;
19285;SDS011;9776;50.798;6.430;2022-07-23T06:38:06;6.93;;;6.32;;
19285;SDS011;9776;50.798;6.430;2022-07-23T06:40:33;7.20;;;6.60;;
19285;SDS011;9776;50.798;6.430;2022-07-23T06:43:00;7.53;;;6.97;;
19285;SDS011;9776;50.798;6.430;2022-07-23T06:45:26;7.28;;;6.68;;
19285;SDS011;9776;50.798;6.430;2022-07-23T06:47:53;6.88;;;6.38;;
19285;SDS011;9776;50.798;6.430;2022-07-23T06:50:21;7.22;;;6.72;;
19285;SDS011;9776;50.798;6.430;2022-07-23T06:52:48;6.63;;;6.13;;
19285;SDS011;9776;50.798;6.430;2022-07-23T06:55:15;7.03;;;6.53;;
19285;SDS011;9776;50.798;6.430;2022-07-23T06:57:41;6.78;;;6.28;;
19285;SDS011;9776;50.798;6.430;2022-07-23T07:00:09;6.97;;;6.38;;
19285;SDS011;9776;50.798;6.430;2022-07-23T07:02:36;6.57;;;6.13;;
19285;SDS011;9776;50.798;6.430;2022-07-23T07:05:03;8.68;;;8.07;;
19285;SDS011;9776;50.798;6.430;2022-07-23T07:07:32;10.40;;;9.70;;
19285;SDS011;9776;50.798;6.430;2022-07-23T07:09:58;10.02;;;9.32;;
19285;SDS011;9776;50.798;6.430;2022-07-23T07:12:25;9.32;;;8.63;;
19285;SDS011;9776;50.798;6.430;2022-07-23T07:14:52;7.63;;;7.13;;
19285;SDS011;9776;50.798;6.430;2022-07-23T07:17:19;7.05;;;6.35;;
19285;SDS011;9776;50.798;6.430;2022-07-23T07:19:46;6.05;;;5.65;;
19285;SDS011;9776;50.798;6.430;2022-07-23T07:22:13;6.50;;;6.00;;
19285;SDS011;9776;50.798;6.430;2022-07-23T07:24:41;5.45;;;5.05;;
19285;SDS011;9776;50.798;6.430;2022-07-23T07:27:07;4.95;;;4.65;;
19285;SDS011;9776;50.798;6.430;2022-07-23T07:29:34;4.85;;;4.55;;
19285;SDS011;9776;50.798;6.430;2022-07-23T07:32:01;4.40;;;4.10;;
19285;SDS011;9776;50.798;6.430;2022-07-23T07:34:28;4.93;;;4.40;;
19285;SDS011;9776;50.798;6.430;2022-07-23T07:36:54;4.35;;;4.05;;
19285;SDS011;9776;50.798;6.430;2022-07-23T07:39:21;4.60;;;4.20;;
19285;SDS011;9776;50.798;6.430;2022-07-23T07:41:49;4.28;;;4.00;;
19285;SDS011;9776;50.798;6.430;2022-07-23T07:44:16;4.45;;;4.15;;
19285;SDS011;9776;50.798;6.430;2022-07-23T07:46:43;4.50;;;4.20;;
19285;SDS011;9776;50.798;6.430;2022-07-23T07:49:09;4.43;;;4.13;;
19285;SDS011;9776;50.798;6.430;2022-07-23T07:51:36;4.53;;;4.20;;
19285;SDS011;9776;50.798;6.430;2022-07-23T07:54:03;4.63;;;4.32;;
19285;SDS011;9776;50.798;6.430;2022-07-23T07:56:30;4.40;;;4.10;;
19285;SDS011;9776;50.798;6.430;2022-07-23T07:58:58;4.63;;;4.32;;
19285;SDS011;9776;50.798;6.430;2022-07-23T08:01:26;4.43;;;4.13;;
19285;SDS011;9776;50.798;6.430;2022-07-23T08:03:52;3.97;;;3.78;;
19285;SDS011;9776;50.798;6.430;2022-07-23T08:06:19;8.25;;;7.70;;
19285;SDS011;9776;50.798;6.430;2022-07-23T08:08:46;4.15;;;3.67;;
19285;SDS011;9776;50.798;6.430;2022-07-23T08:11:13;4.05;;;3.75;;
19285;SDS011;9776;50.798;6.430;2022-07-23T08:13:40;4.03;;;3.72;;
19285;SDS011;9776;50.798;6.430;2022-07-23T08:16:10;3.53;;;3.22;;
19285;SDS011;9776;50.798;6.430;2022-07-23T08:18:37;4.07;;;3.78;;
19285;SDS011;9776;50.798;6.430;2022-07-23T08:21:04;3.72;;;3.42;;
19285;SDS011;9776;50.798;6.430;2022-07-23T08:23:30;3.78;;;3.47;;
19285;SDS011;9776;50.798;6.430;2022-07-23T08:25:57;3.70;;;3.40;;
19285;SDS011;9776;50.798;6.430;2022-07-23T08:28:24;3.58;;;3.35;;
19285;SDS011;9776;50.798;6.430;2022-07-23T08:30:51;3.60;;;3.30;;
19285;SDS011;9776;50.798;6.430;2022-07-23T08:33:19;3.78;;;3.58;;
19285;SDS011;9776;50.798;6.430;2022-07-23T08:35:46;3.45;;;3.17;;
19285;SDS011;9776;50.798;6.430;2022-07-23T08:38:16;2.95;;;2.75;;
19285;SDS011;9776;50.798;6.430;2022-07-23T08:40:45;3.40;;;3.10;;
19285;SDS011;9776;50.798;6.430;2022-07-23T08:43:13;2.75;;;2.55;;
19285;SDS011;9776;50.798;6.430;2022-07-23T08:45:43;3.53;;;3.22;;
19285;SDS011;9776;50.798;6.430;2022-07-23T08:48:11;3.13;;;2.92;;
19285;SDS011;9776;50.798;6.430;2022-07-23T08:50:42;3.00;;;2.80;;
19285;SDS011;9776;50.798;6.430;2022-07-23T08:53:10;2.85;;;2.65;;
19285;SDS011;9776;50.798;6.430;2022-07-23T08:55:37;3.30;;;3.10;;
19285;SDS011;9776;50.798;6.430;2022-07-23T08:58:03;3.15;;;2.95;;
19285;SDS011;9776;50.798;6.430;2022-07-23T09:00:30;3.13;;;2.92;;
19285;SDS011;9776;50.798;6.430;2022-07-23T09:02:57;3.33;;;2.80;;
19285;SDS011;9776;50.798;6.430;2022-07-23T09:05:24;2.40;;;2.30;;
19285;SDS011;9776;50.798;6.430;2022-07-23T09:08:08;2.50;;;2.30;;
19285;SDS011;9776;50.798;6.430;2022-07-23T09:10:46;1.73;;;1.63;;
19285;SDS011;9776;50.798;6.430;2022-07-23T09:13:26;2.60;;;2.40;;
19285;SDS011;9776;50.798;6.430;2022-07-23T09:15:58;2.05;;;1.92;;
19285;SDS011;9776;50.798;6.430;2022-07-23T09:18:33;2.13;;;2.03;;
19285;SDS011;9776;50.798;6.430;2022-07-23T09:21:11;2.35;;;2.15;;
19285;SDS011;9776;50.798;6.430;2022-07-23T09:23:41;2.60;;;2.40;;
19285;SDS011;9776;50.798;6.430;2022-07-23T09:26:22;2.15;;;2.05;;
19285;SDS011;9776;50.798;6.430;2022-07-23T09:28:52;2.00;;;1.90;;
19285;SDS011;9776;50.798;6.430;2022-07-23T09:31:21;2.50;;;2.30;;
19285;SDS011;9776;50.798;6.430;2022-07-23T09:33:48;2.45;;;2.25;;
19285;SDS011;9776;50.798;6.430;2022-07-23T09:36:15;2.20;;;2.10;;
19285;SDS011;9776;50.798;6.430;2022-07-23T09:38:54;2.50;;;2.30;;
19285;SDS011;9776;50.798;6.430;2022-07-23T09:41:21;3.03;;;2.03;;
19285;SDS011;9776;50.798;6.430;2022-07-23T09:43:54;2.13;;;2.00;;
19285;SDS011;9776;50.798;6.430;2022-07-23T09:46:21;2.40;;;2.20;;
19285;SDS011;9776;50.798;6.430;2022-07-23T09:48:49;2.30;;;2.20;;
19285;SDS011;9776;50.798;6.430;2022-07-23T09:51:17;1.77;;;1.67;;
19285;SDS011;9776;50.798;6.430;2022-07-23T09:53:47;1.80;;;1.70;;
19285;SDS011;9776;50.798;6.430;2022-07-23T09:56:15;1.70;;;1.60;;
19285;SDS011;9776;50.798;6.430;2022-07-23T09:58:43;2.00;;;1.80;;
19285;SDS011;9776;50.798;6.430;2022-07-23T10:01:14;1.45;;;1.35;;
19285;SDS011;9776;50.798;6.430;2022-07-23T10:03:41;1.38;;;1.27;;
19285;SDS011;9776;50.798;6.430;2022-07-23T10:06:08;1.85;;;1.40;;
19285;SDS011;9776;50.798;6.430;2022-07-23T10:08:36;1.30;;;1.20;;
19285;SDS011;9776;50.798;6.430;2022-07-23T10:11:07;1.02;;;1.02;;
19285;SDS011;9776;50.798;6.430;2022-07-23T10:13:37;1.35;;;1.10;;
19285;SDS011;9776;50.798;6.430;2022-07-23T10:16:17;2.45;;;1.40;;
19285;SDS011;9776;50.798;6.430;2022-07-23T10:18:44;1.05;;;1.00;;
19285;SDS011;9776;50.798;6.430;2022-07-23T10:21:12;1.10;;;1.00;;
19285;SDS011;9776;50.798;6.430;2022-07-23T10:23:51;1.20;;;1.10;;
19285;SDS011;9776;50.798;6.430;2022-07-23T10:26:30;1.20;;;1.10;;
19285;SDS011;9776;50.798;6.430;2022-07-23T10:29:08;1.10;;;1.00;;
19285;SDS011;9776;50.798;6.430;2022-07-23T10:31:49;1.00;;;1.00;;
19285;SDS011;9776;50.798;6.430;2022-07-23T10:34:25;1.98;;;1.00;;
19285;SDS011;9776;50.798;6.430;2022-07-23T10:36:59;1.38;;;0.80;;
19285;SDS011;9776;50.798;6.430;2022-07-23T10:39:34;1.45;;;1.10;;
19285;SDS011;9776;50.798;6.430;2022-07-23T10:42:09;1.02;;;1.00;;
19285;SDS011;9776;50.798;6.430;2022-07-23T10:44:42;0.88;;;0.88;;
19285;SDS011;9776;50.798;6.430;2022-07-23T10:47:11;1.00;;;1.00;;
19285;SDS011;9776;50.798;6.430;2022-07-23T10:49:47;0.77;;;0.77;;
19285;SDS011;9776;50.798;6.430;2022-07-23T10:52:24;0.73;;;0.73;;
19285;SDS011;9776;50.798;6.430;2022-07-23T10:54:53;1.10;;;1.00;;
19285;SDS011;9776;50.798;6.430;2022-07-23T10:57:21;0.80;;;0.80;;
19285;SDS011;9776;50.798;6.430;2022-07-23T11:02:49;0.88;;;0.88;;
19285;SDS011;9776;50.798;6.430;2022-07-23T11:05:17;0.88;;;0.88;;
19285;SDS011;9776;50.798;6.430;2022-07-23T11:10:45;0.90;;;0.90;;
19285;SDS011;9776;50.798;6.430;2022-07-23T11:13:27;0.90;;;0.90;;
19285;SDS011;9776;50.798;6.430;2022-07-23T11:16:07;1.20;;;1.00;;
19285;SDS011;9776;50.798;6.430;2022-07-23T11:18:56;1.20;;;1.10;;
19285;SDS011;9776;50.798;6.430;2022-07-23T11:21:40;0.90;;;0.90;;
19285;SDS011;9776;50.798;6.430;2022-07-23T11:24:11;0.70;;;0.70;;
19285;SDS011;9776;50.798;6.430;2022-07-23T11:27:01;1.20;;;1.10;;
19285;SDS011;9776;50.798;6.430;2022-07-23T11:29:41;0.88;;;0.88;;
19285;SDS011;9776;50.798;6.430;2022-07-23T11:32:19;0.80;;;0.80;;
19285;SDS011;9776;50.798;6.430;2022-07-23T11:34:50;0.98;;;0.90;;
19285;SDS011;9776;50.798;6.430;2022-07-23T11:37:34;0.90;;;0.90;;
19285;SDS011;9776;50.798;6.430;2022-07-23T11:40:03;0.70;;;0.70;;
19285;SDS011;9776;50.798;6.430;2022-07-23T11:42:34;0.75;;;0.68;;
19285;SDS011;9776;50.798;6.430;2022-07-23T11:45:02;0.93;;;0.80;;
19285;SDS011;9776;50.798;6.430;2022-07-23T11:47:32;0.98;;;0.80;;
19285;SDS011;9776;50.798;6.430;2022-07-23T11:49:59;1.00;;;0.90;;
19285;SDS011;9776;50.798;6.430;2022-07-23T11:52:27;1.00;;;0.90;;
19285;SDS011;9776;50.798;6.430;2022-07-23T11:54:55;0.77;;;0.75;;
19285;SDS011;9776;50.798;6.430;2022-07-23T11:57:24;0.80;;;0.80;;
19285;SDS011;9776;50.798;6.430;2022-07-23T11:59:52;0.80;;;0.80;;
19285;SDS011;9776;50.798;6.430;2022-07-23T12:02:21;1.50;;;0.82;;
19285;SDS011;9776;50.798;6.430;2022-07-23T12:04:50;1.20;;;0.73;;
19285;SDS011;9776;50.798;6.430;2022-07-23T12:07:25;0.77;;;0.77;;
19285;SDS011;9776;50.798;6.430;2022-07-23T12:09:53;0.80;;;0.80;;
19285;SDS011;9776;50.798;6.430;2022-07-23T12:12:20;1.27;;;0.90;;
19285;SDS011;9776;50.798;6.430;2022-07-23T12:14:56;0.70;;;0.70;;
19285;SDS011;9776;50.798;6.430;2022-07-23T12:17:38;0.85;;;0.85;;
19285;SDS011;9776;50.798;6.430;2022-07-23T12:20:07;2.08;;;0.70;;
19285;SDS011;9776;50.798;6.430;2022-07-23T12:22:37;0.70;;;0.70;;
19285;SDS011;9776;50.798;6.430;2022-07-23T12:25:06;1.35;;;0.70;;
19285;SDS011;9776;50.798;6.430;2022-07-23T12:27:34;0.80;;;0.70;;
19285;SDS011;9776;50.798;6.430;2022-07-23T12:30:18;0.73;;;0.73;;
19285;SDS011;9776;50.798;6.430;2022-07-23T12:32:46;0.60;;;0.60;;
19285;SDS011;9776;50.798;6.430;2022-07-23T12:35:16;0.70;;;0.70;;
19285;SDS011;9776;50.798;6.430;2022-07-23T12:37:44;0.60;;;0.60;;
19285;SDS011;9776;50.798;6.430;2022-07-23T12:40:22;1.33;;;0.70;;
19285;SDS011;9776;50.798;6.430;2022-07-23T12:42:52;0.75;;;0.75;;
19285;SDS011;9776;50.798;6.430;2022-07-23T12:45:21;0.88;;;0.80;;
19285;SDS011;9776;50.798;6.430;2022-07-23T12:47:55;0.75;;;0.75;;
19285;SDS011;9776;50.798;6.430;2022-07-23T12:50:42;0.70;;;0.70;;
19285;SDS011;9776;50.798;6.430;2022-07-23T12:53:12;0.82;;;0.82;;
19285;SDS011;9776;50.798;6.430;2022-07-23T12:55:42;0.85;;;0.85;;
19285;SDS011;9776;50.798;6.430;2022-07-23T12:58:11;0.95;;;0.90;;
19285;SDS011;9776;50.798;6.430;2022-07-23T13:03:33;0.88;;;0.80;;
19285;SDS011;9776;50.798;6.430;2022-07-23T13:06:04;1.00;;;0.90;;
19285;SDS011;9776;50.798;6.430;2022-07-23T13:08:34;1.00;;;1.00;;
19285;SDS011;9776;50.798;6.430;2022-07-23T13:11:05;1.83;;;0.90;;
19285;SDS011;9776;50.798;6.430;2022-07-23T13:13:34;1.35;;;1.20;;
19285;SDS011;9776;50.798;6.430;2022-07-23T13:16:01;1.50;;;1.40;;
19285;SDS011;9776;50.798;6.430;2022-07-23T13:18:29;1.25;;;1.25;;
19285;SDS011;9776;50.798;6.430;2022-07-23T13:20:57;1.50;;;1.40;;
19285;SDS011;9776;50.798;6.430;2022-07-23T13:23:25;1.35;;;1.25;;
19285;SDS011;9776;50.798;6.430;2022-07-23T13:25:52;1.40;;;1.30;;
19285;SDS011;9776;50.798;6.430;2022-07-23T13:28:20;1.27;;;1.17;;
19285;SDS011;9776;50.798;6.430;2022-07-23T13:30:48;1.15;;;1.15;;
19285;SDS011;9776;50.798;6.430;2022-07-23T13:33:16;1.55;;;1.45;;
19285;SDS011;9776;50.798;6.430;2022-07-23T13:35:44;1.70;;;1.60;;
19285;SDS011;9776;50.798;6.430;2022-07-23T13:38:11;1.70;;;1.60;;
19285;SDS011;9776;50.798;6.430;2022-07-23T13:40:39;1.55;;;1.45;;
19285;SDS011;9776;50.798;6.430;2022-07-23T13:43:08;2.28;;;1.25;;
19285;SDS011;9776;50.798;6.430;2022-07-23T13:45:36;1.30;;;1.20;;
19285;SDS011;9776;50.798;6.430;2022-07-23T13:48:04;1.20;;;1.10;;
19285;SDS011;9776;50.798;6.430;2022-07-23T13:50:31;1.30;;;1.20;;
19285;SDS011;9776;50.798;6.430;2022-07-23T13:53:00;1.23;;;1.10;;
19285;SDS011;9776;50.798;6.430;2022-07-23T13:55:28;2.55;;;1.33;;
19285;SDS011;9776;50.798;6.430;2022-07-23T13:57:56;1.33;;;1.23;;
19285;SDS011;9776;50.798;6.430;2022-07-23T14:00:24;1.27;;;1.17;;
19285;SDS011;9776;50.798;6.430;2022-07-23T14:02:52;1.90;;;1.10;;
19285;SDS011;9776;50.798;6.430;2022-07-23T14:05:19;1.25;;;1.15;;
19285;SDS011;9776;50.798;6.430;2022-07-23T14:07:46;1.15;;;1.15;;
19285;SDS011;9776;50.798;6.430;2022-07-23T14:10:15;1.20;;;1.10;;
19285;SDS011;9776;50.798;6.430;2022-07-23T14:12:43;1.30;;;1.20;;
19285;SDS011;9776;50.798;6.430;2022-07-23T14:15:11;1.40;;;1.30;;
19285;SDS011;9776;50.798;6.430;2022-07-23T14:17:39;1.48;;;1.38;;
19285;SDS011;9776;50.798;6.430;2022-07-23T14:20:08;1.20;;;1.20;;
19285;SDS011;9776;50.798;6.430;2022-07-23T14:22:35;1.50;;;1.40;;
19285;SDS011;9776;50.798;6.430;2022-07-23T14:25:02;1.52;;;1.42;;
19285;SDS011;9776;50.798;6.430;2022-07-23T14:27:30;1.33;;;1.23;;
19285;SDS011;9776;50.798;6.430;2022-07-23T14:29:57;2.72;;;1.48;;
19285;SDS011;9776;50.798;6.430;2022-07-23T14:32:25;1.55;;;1.45;;
19285;SDS011;9776;50.798;6.430;2022-07-23T14:34:52;1.60;;;1.50;;
19285;SDS011;9776;50.798;6.430;2022-07-23T14:37:19;1.52;;;1.42;;
19285;SDS011;9776;50.798;6.430;2022-07-23T14:39:46;1.70;;;1.60;;
19285;SDS011;9776;50.798;6.430;2022-07-23T14:42:13;1.45;;;1.35;;
19285;SDS011;9776;50.798;6.430;2022-07-23T14:44:40;1.35;;;1.25;;
19285;SDS011;9776;50.798;6.430;2022-07-23T14:47:07;1.52;;;1.42;;
19285;SDS011;9776;50.798;6.430;2022-07-23T14:49:36;1.02;;;1.02;;
19285;SDS011;9776;50.798;6.430;2022-07-23T14:52:03;1.17;;;1.10;;
19285;SDS011;9776;50.798;6.430;2022-07-23T14:54:31;1.30;;;1.20;;
19285;SDS011;9776;50.798;6.430;2022-07-23T14:56:58;1.10;;;1.00;;
19285;SDS011;9776;50.798;6.430;2022-07-23T14:59:27;1.15;;;1.05;;
19285;SDS011;9776;50.798;6.430;2022-07-23T15:01:55;2.92;;;1.20;;
19285;SDS011;9776;50.798;6.430;2022-07-23T15:04:22;1.02;;;0.98;;
19285;SDS011;9776;50.798;6.430;2022-07-23T15:06:50;1.27;;;1.17;;
19285;SDS011;9776;50.798;6.430;2022-07-23T15:09:17;1.20;;;1.10;;
19285;SDS011;9776;50.798;6.430;2022-07-23T15:11:44;1.20;;;1.20;;
19285;SDS011;9776;50.798;6.430;2022-07-23T15:14:11;1.15;;;1.10;;
19285;SDS011;9776;50.798;6.430;2022-07-23T15:16:37;1.33;;;1.23;;